createdAt,value
2022-10-19T00:02:24.761Z,97177.41
2022-10-19T00:06:38.003Z,97181.72
2022-10-19T00:10:50.297Z,97174.34
2022-10-19T00:15:04.291Z,97180.66
2022-10-19T00:19:24.773Z,97181.59
2022-10-19T00:23:37.743Z,97177.72
2022-10-19T00:27:50.120Z,97180.75
2022-10-19T00:32:03.471Z,97183.75
2022-10-19T00:36:27.429Z,97181.97
2022-10-19T00:40:41.282Z,97191.44
2022-10-19T00:45:02.796Z,97173.50
2022-10-19T00:49:20.962Z,97185.47
2022-10-19T00:53:33.348Z,97189.81
2022-10-19T00:57:45.762Z,97186.19
2022-10-19T01:01:59.077Z,97191.47
2022-10-19T01:06:15.632Z,97177.38
2022-10-19T01:10:53.413Z,97173.44
2022-10-19T01:15:11.813Z,97171.94
2022-10-19T01:19:46.698Z,97174.91
2022-10-19T01:24:29.367Z,97174.31
2022-10-19T01:29:05.930Z,97166.91
2022-10-19T01:33:30.498Z,97160.47
2022-10-19T01:38:08.479Z,97161.19
2022-10-19T01:42:32.243Z,97159.50
2022-10-19T01:46:51.193Z,97156.41
2022-10-19T01:51:24.692Z,97155.34
2022-10-19T01:55:46.233Z,97157.69
2022-10-19T02:00:17.461Z,97155.53
2022-10-19T02:04:31.568Z,97147.63
2022-10-19T02:08:52.807Z,97160.13
2022-10-19T02:13:07.877Z,97156.75
2022-10-19T02:17:25.985Z,97161.09
2022-10-19T02:21:41.884Z,97162.63
2022-10-19T02:26:04.053Z,97159.09
2022-10-19T02:30:20.256Z,97151.06
2022-10-19T02:34:33.927Z,97145.03
2022-10-19T02:43:27.711Z,97140.28
2022-10-19T02:52:51.809Z,97136.09
2022-10-19T02:57:16.705Z,97135.50
2022-10-19T03:01:30.274Z,97128.22
2022-10-19T03:05:42.737Z,97144.13
2022-10-19T03:09:55.524Z,97120.50
2022-10-19T03:14:09.509Z,97139.19
2022-10-19T03:18:22.715Z,97120.81
2022-10-19T03:22:35.129Z,97124.22
2022-10-19T03:26:47.855Z,97117.88
2022-10-19T03:31:00.772Z,97113.09
2022-10-19T03:35:13.925Z,97123.28
2022-10-19T03:39:26.660Z,97118.66
2022-10-19T03:43:42.646Z,97114.19
2022-10-19T03:48:40.277Z,97108.00
2022-10-19T03:53:06.567Z,97105.66
2022-10-19T03:57:19.237Z,97102.13
2022-10-19T04:01:37.778Z,97093.31
2022-10-19T04:05:50.083Z,97096.88
2022-10-19T04:10:02.413Z,97105.53
2022-10-19T04:14:26.698Z,97089.63
2022-10-19T04:18:45.591Z,97103.97
2022-10-19T04:22:57.921Z,97104.44
2022-10-19T04:27:10.208Z,97101.19
2022-10-19T04:31:22.532Z,97089.16
2022-10-19T04:35:34.855Z,97092.41
2022-10-19T04:39:47.352Z,97094.56
2022-10-19T04:44:02.358Z,97087.31
2022-10-19T04:48:24.640Z,97081.44
2022-10-19T04:52:36.966Z,97091.78
2022-10-19T04:56:55.277Z,97077.91
2022-10-19T05:01:20.426Z,97089.47
2022-10-19T05:05:33.911Z,97069.25
2022-10-19T05:09:46.289Z,97081.13
2022-10-19T05:13:58.689Z,97067.72
2022-10-19T05:18:10.978Z,97061.53
2022-10-19T05:22:23.313Z,97071.88
2022-10-19T05:26:35.666Z,97072.31
2022-10-19T05:30:49.021Z,97068.78
2022-10-19T05:35:01.732Z,97068.78
2022-10-19T05:39:20.506Z,97082.31
2022-10-19T05:43:32.832Z,97072.91
2022-10-19T05:47:45.117Z,97072.28
2022-10-19T05:51:57.651Z,97092.63
2022-10-19T05:56:14.165Z,97090.31
2022-10-19T06:00:26.823Z,97082.53
2022-10-19T06:04:39.525Z,97083.00
2022-10-19T06:09:01.879Z,97088.84
2022-10-19T06:13:15.486Z,97083.59
2022-10-19T06:17:29.880Z,97080.66
2022-10-19T06:21:45.638Z,97089.31
2022-10-19T06:25:58.621Z,97093.50
2022-10-19T06:30:11.479Z,97089.75
2022-10-19T06:34:23.993Z,97102.88
2022-10-19T06:38:36.358Z,97100.47
2022-10-19T06:42:48.975Z,97110.03
2022-10-19T06:47:01.321Z,97106.63
2022-10-19T06:51:14.521Z,97110.53
2022-10-19T06:55:28.743Z,97117.59
2022-10-19T06:59:41.125Z,97116.91
2022-10-19T07:03:54.216Z,97122.06
2022-10-19T07:08:06.569Z,97120.34
2022-10-19T07:12:23.877Z,97132.28
2022-10-19T07:16:36.204Z,97133.72
2022-10-19T07:21:02.242Z,97125.94
2022-10-19T07:25:14.979Z,97120.03
2022-10-19T07:29:27.358Z,97128.81
2022-10-19T07:33:40.119Z,97128.81
2022-10-19T07:37:52.413Z,97123.09
2022-10-19T07:42:04.896Z,97119.16
2022-10-19T07:46:23.011Z,97130.16
2022-10-19T07:50:35.350Z,97121.25
2022-10-19T07:54:50.281Z,97131.53
2022-10-19T07:59:03.624Z,97120.78
2022-10-19T08:07:52.880Z,97121.78
2022-10-19T08:12:06.336Z,97129.25
2022-10-19T08:16:23.201Z,97138.91
2022-10-19T08:20:35.590Z,97132.56
2022-10-19T08:24:47.930Z,97125.63
2022-10-19T08:29:03.669Z,97135.19
2022-10-19T08:33:16.096Z,97132.38
2022-10-19T08:37:40.664Z,97145.25
2022-10-19T08:42:17.102Z,97143.72
2022-10-19T08:46:52.140Z,97138.03
2022-10-19T08:51:06.370Z,97131.19
2022-10-19T08:55:49.872Z,97132.38
2022-10-19T09:00:13.800Z,97132.41
2022-10-19T09:04:34.009Z,97125.50
2022-10-19T09:08:47.240Z,97117.25
2022-10-19T09:14:00.449Z,97125.88
2022-10-19T09:18:29.196Z,97126.31
2022-10-19T09:22:44.268Z,97135.41
2022-10-19T09:27:00.813Z,97132.06
2022-10-19T09:31:38.269Z,97136.06
2022-10-19T09:35:54.572Z,97131.34
2022-10-19T09:40:07.917Z,97133.31
2022-10-19T09:44:28.168Z,97132.97
2022-10-19T09:48:50.197Z,97130.34
2022-10-19T09:53:06.362Z,97137.16
2022-10-19T09:57:22.850Z,97133.53
2022-10-19T10:01:43.520Z,97141.78
2022-10-19T10:06:04.869Z,97125.84
2022-10-19T10:10:28.187Z,97135.84
2022-10-19T10:14:45.196Z,97125.09
2022-10-19T10:19:05.130Z,97116.53
2022-10-19T10:23:25.497Z,97117.34
2022-10-19T10:27:39.839Z,97124.03
2022-10-19T10:31:56.068Z,97112.63
2022-10-19T10:36:10.685Z,97115.09
2022-10-19T10:40:30.692Z,97109.66
2022-10-19T10:44:49.298Z,97106.28
2022-10-19T10:49:04.074Z,97103.00
2022-10-19T10:53:32.916Z,97094.34
2022-10-19T10:57:50.524Z,97096.88
2022-10-19T11:02:14.783Z,97091.94
2022-10-19T11:06:27.616Z,97100.06
2022-10-19T11:11:11.783Z,97088.59
2022-10-19T11:15:35.471Z,97075.31
2022-10-19T11:19:47.840Z,97074.63
2022-10-19T11:24:25.283Z,97065.28
2022-10-19T11:28:54.481Z,97072.84
2022-10-19T11:33:16.095Z,97074.41
2022-10-19T11:37:34.615Z,97068.00
2022-10-19T11:41:59.217Z,97068.00
2022-10-19T11:46:16.873Z,97038.38
2022-10-19T11:51:21.474Z,97036.47
2022-10-19T11:55:43.830Z,97030.75
2022-10-19T12:00:13.660Z,97034.88
2022-10-19T12:04:48.970Z,97023.31
2022-10-19T12:09:39.861Z,97030.44
2022-10-19T12:13:56.774Z,97017.47
2022-10-19T12:18:21.153Z,97021.75
2022-10-19T12:22:38.181Z,97008.56
2022-10-19T12:26:51.976Z,97010.34
2022-10-19T12:31:06.198Z,96996.25
2022-10-19T12:35:40.548Z,96996.22
2022-10-19T12:39:58.632Z,96995.72
2022-10-19T12:44:14.027Z,96985.31
2022-10-19T12:48:26.476Z,96981.84
2022-10-19T12:52:39.863Z,96973.63
2022-10-19T12:56:55.182Z,96958.28
2022-10-19T13:01:09.295Z,96959.22
2022-10-19T13:05:25.105Z,96960.25
2022-10-19T13:09:39.466Z,96951.09
2022-10-19T13:14:01.555Z,96945.53
2022-10-19T13:18:17.702Z,96955.19
2022-10-19T13:22:30.116Z,96949.25
2022-10-19T13:26:42.485Z,96945.69
2022-10-19T13:31:00.487Z,96943.47
2022-10-19T13:35:24.591Z,96944.28
2022-10-19T13:39:39.995Z,96940.97
2022-10-19T13:44:15.813Z,96919.03
2022-10-19T13:48:39.426Z,96929.22
2022-10-19T13:52:57.876Z,96927.47
2022-10-19T13:57:22.398Z,96930.25
2022-10-19T14:01:52.699Z,96927.59
2022-10-19T14:06:32.515Z,96922.97
2022-10-19T14:11:00.698Z,96920.50
2022-10-19T14:15:29.738Z,96908.13
2022-10-19T14:20:03.431Z,96909.63
2022-10-19T14:24:29.669Z,96904.53
2022-10-19T14:28:43.842Z,96893.56
2022-10-19T14:32:59.550Z,96888.94
2022-10-19T14:37:26.676Z,96876.13
2022-10-19T14:41:39.082Z,96871.44
2022-10-19T14:46:06.891Z,96881.31
2022-10-19T14:50:22.094Z,96881.59
2022-10-19T14:54:41.957Z,96873.25
2022-10-19T14:59:01.494Z,96866.56
2022-10-19T15:03:26.656Z,96860.97
2022-10-19T15:07:41.818Z,96858.41
2022-10-19T15:11:57.674Z,96855.06
2022-10-19T15:16:42.978Z,96856.69
2022-10-19T15:21:18.900Z,96866.69
2022-10-19T15:25:37.856Z,96857.75
2022-10-19T15:30:01.200Z,96855.47
2022-10-19T15:34:29.070Z,96853.16
2022-10-19T15:38:42.024Z,96860.19
2022-10-19T15:42:54.411Z,96831.75
2022-10-19T15:47:16.045Z,96835.22
2022-10-19T15:51:28.307Z,96831.56
2022-10-19T15:55:40.796Z,96838.66
2022-10-19T15:59:53.758Z,96836.25
2022-10-19T16:04:06.221Z,96822.84
2022-10-19T16:08:18.572Z,96822.22
2022-10-19T16:12:30.914Z,96822.44
2022-10-19T16:16:43.323Z,96823.06
2022-10-19T16:20:57.629Z,96834.34
2022-10-19T16:25:10.517Z,96832.78
2022-10-19T16:29:26.657Z,96839.19
2022-10-19T16:33:41.212Z,96837.88
2022-10-19T16:37:53.525Z,96843.25
2022-10-19T16:42:05.919Z,96845.16
2022-10-19T16:46:22.557Z,96849.88
2022-10-19T16:50:34.913Z,96844.53
2022-10-19T16:54:47.262Z,96863.44
2022-10-19T16:59:14.121Z,96857.34
2022-10-19T17:03:26.923Z,96856.75
2022-10-19T17:07:39.260Z,96856.91
2022-10-19T17:11:51.585Z,96857.88
2022-10-19T17:16:08.479Z,96856.50
2022-10-19T17:20:20.772Z,96858.50
2022-10-19T17:47:57.889Z,96839.16
2022-10-19T17:52:11.228Z,96841.94
2022-10-19T17:56:24.284Z,96831.94
2022-10-19T18:00:37.106Z,96832.38
2022-10-19T18:04:50.104Z,96836.72
2022-10-19T18:09:08.108Z,96831.16
2022-10-19T18:13:20.764Z,96827.91
2022-10-19T18:17:33.371Z,96838.56
2022-10-19T18:21:47.953Z,96825.00
2022-10-19T18:26:09.733Z,96831.63
2022-10-19T18:30:22.451Z,96843.00
2022-10-19T18:34:35.363Z,96822.19
2022-10-19T18:38:52.856Z,96838.50
2022-10-19T18:57:31.596Z,96838.91
2022-10-19T19:01:44.417Z,96826.91
2022-10-19T19:06:00.643Z,96826.53
2022-10-19T19:10:15.228Z,96823.28
2022-10-19T19:14:27.516Z,96829.53
2022-10-19T19:18:39.897Z,96829.16
2022-10-19T19:22:52.466Z,96813.72
2022-10-19T19:27:05.004Z,96807.94
2022-10-19T19:31:17.389Z,96799.28
2022-10-19T19:35:29.687Z,96804.16
2022-10-19T19:39:43.101Z,96794.16
2022-10-19T19:43:58.361Z,96794.72
2022-10-19T19:48:11.337Z,96794.53
2022-10-19T19:52:30.234Z,96804.19
2022-10-19T19:56:46.004Z,96799.78
2022-10-19T20:00:58.361Z,96803.56
2022-10-19T20:05:11.086Z,96805.13
2022-10-19T20:09:23.363Z,96796.84
2022-10-19T20:13:36.671Z,96797.75
2022-10-19T20:17:49.016Z,96798.06
2022-10-19T20:22:01.466Z,96795.31
2022-10-19T20:26:24.683Z,96789.78
2022-10-19T20:30:37.154Z,96785.78
2022-10-19T20:34:49.478Z,96792.97
2022-10-19T20:39:01.801Z,96780.03
2022-10-19T20:43:15.999Z,96778.59
2022-10-19T20:47:28.378Z,96777.56
2022-10-19T20:51:40.737Z,96786.69
2022-10-19T20:55:53.005Z,96782.91
2022-10-19T21:00:05.958Z,96780.16
2022-10-19T21:04:18.408Z,96782.56
2022-10-19T21:08:30.937Z,96771.38
2022-10-19T21:12:43.407Z,96774.63
2022-10-19T21:16:59.627Z,96765.00
2022-10-19T21:21:23.051Z,96754.84
2022-10-19T21:25:35.365Z,96768.75
2022-10-19T21:29:47.676Z,96764.47
2022-10-19T21:33:59.970Z,96757.53
2022-10-19T21:38:12.335Z,96755.00
2022-10-19T21:42:24.749Z,96746.56
2022-10-19T21:46:37.050Z,96755.19
2022-10-19T21:50:50.156Z,96745.72
2022-10-19T21:55:02.484Z,96749.34
2022-10-19T21:59:15.910Z,96739.41
2022-10-19T22:03:28.480Z,96742.53
2022-10-19T22:07:40.791Z,96735.59
2022-10-19T22:11:53.124Z,96738.91
2022-10-19T22:16:07.000Z,96721.81
2022-10-19T22:20:19.331Z,96723.38
2022-10-19T22:24:31.678Z,96724.81
2022-10-19T22:28:44.839Z,96730.16
2022-10-19T22:32:57.138Z,96710.31
2022-10-19T22:37:09.532Z,96709.75
2022-10-19T22:41:21.787Z,96702.72
2022-10-19T22:45:34.124Z,96690.59
2022-10-19T22:49:46.638Z,96675.69
2022-10-19T22:53:58.985Z,96660.34
2022-10-19T23:02:30.192Z,96675.47
2022-10-19T23:06:42.469Z,96690.59
2022-10-19T23:10:55.046Z,96707.25
2022-10-19T23:15:07.981Z,96694.00
2022-10-19T23:19:20.338Z,96690.75
2022-10-19T23:23:35.145Z,96688.78
2022-10-19T23:27:49.231Z,96684.63
2022-10-19T23:32:01.549Z,96688.09
2022-10-19T23:36:16.832Z,96680.50
2022-10-19T23:40:29.262Z,96681.59
2022-10-19T23:44:41.609Z,96688.31
2022-10-19T23:48:53.923Z,96698.94
2022-10-19T23:53:16.243Z,96685.16
2022-10-19T23:57:28.617Z,96664.16
